Terminal Aerodrome Forecast
Issued by NWS Charleston, WV

Current Version | Previous Version | Text Only | Print | Product List | Glossary Off
Versions: 1 2 3 4 5 6 7 8 9 10 11 12 13 14 15 16 17 18 19 20 21 22 23 24 25

000
FTUS41 KRLX 210045 AAA
TAFCRW
TAF AMD
KCRW 210045Z 2101/2124 VRB03KT P6SM VCTS BKN040CB
     FM210200 VRB03KT 6SM BR BKN050
     FM210600 VRB03KT 5SM BR FEW001 SCT090
     FM210900 15005KT 6SM BR BKN050
     FM211300 16005KT 6SM SHRA BR BKN050
     FM211500 17007KT 5SM SHRA BR OVC050=

USA.gov is the U.S. government's official web portal to all federal, state and local government web resources and services.